AirNav   Everest Fuels
 
 947 users online  

WV39 Ravenswood Seaplane Base
Ravenswood, West Virginia, USA

GOING TO RAVENSWOOD?


FAA INFORMATION EFFECTIVE 10 SEPTEMBER 2020

Location

FAA Identifier: WV39
Lat/Long: 38-57-07.2900N 081-46-23.4740W
38-57.121500N 081-46.391233W
38.9520250,-81.7731872
(estimated)
Elevation: 560 ft. / 170.7 m (surveyed)
Variation: 06W (1985)
From city: 1 mile W of RAVENSWOOD, WV
Time zone: UTC -4 (UTC -5 during Standard Time)
Zip code: 26164

Seaplane Base Operations

Seaplane Base use: Private use. Permission required prior to landing
Activation date: 06/1981
Control tower: no
ARTCC: INDIANAPOLIS CENTER
FSS: ELKINS FLIGHT SERVICE STATION [703-724-4288]
Attendance: IREG
Wind indicator: no
Segmented circle: no

Seaplane Base Communications

WX AWOS-2 at I18 (2.5 nm SW): 121.3 (304-273-3424)
WX AWOS-3 at 3I2 (15 nm W): 119.675 (304-675-4618)
WX AWOS-3 at GAS (20 nm W): 119.925 (740-446-2149)

Nearby radio navigation aids

VOR radial/distance  VOR name  Freq  Var
HNNr048/16.8HENDERSON VORTAC115.9003W
JPUr215/34.7PARKERSBURG VOR/DME108.6003W
HVQr003/36.1CHARLESTON VOR/DME117.4003W

 
NDB name  Hdg/Dist  Freq  Var  ID
UNIVERSITY144/24.625006WUGS ..- --. ...

Seaplane Base Services

Runway Information

Runway 13W/31W

Dimensions: 5000 x 500 ft. / 1524 x 152 m
Surface: water
RUNWAY 13W  RUNWAY 31W
Traffic pattern: leftleft
Obstructions: none125 ft. brdg, 3700 ft. from runway

Seaplane Base Ownership and Management from official FAA records

Ownership: Privately-owned
Owner: JONES AIR, INC
523 S. WADESBORO BLVD
MT. GILEAD, NC 27306
Phone 704-985-4714
Manager: DAVID E. JONES
523 S. WADESBORO BLVD
MT. GILEAD, NC 27306
Phone 704-985-4714

Seaplane Base Operational Statistics

Aircraft based on the field: 1
Single engine airplanes: 1
    

Additional Remarks

USE AT OWN RISK.
FOR CD CTC INDIANAPOLIS ARTCC AT 317-247-2411.

Instrument Procedures

There are no published instrument procedures at WV39.

Some nearby airports with instrument procedures:

I18 - Jackson County Airport (3 nm SW)
3I2 - Mason County Airport (15 nm W)
KGAS - Gallia-Meigs Regional Airport (20 nm W)
KUSW - Boggs Field Airport (21 nm E)
KUNI - Ohio University Airport (26 nm NW)
 
Loc | Ops | Rwys | IFR | FBO | Links
Com | Nav | Svcs | Stats | Notes
Area around WV39 (Ravenswood Seaplane Base)
 
Road maps at: MapQuest Bing Google
 
Aerial photo
No photo
 
Sectional chart

 
Airport distance calculator
Flying to Ravenswood Seaplane Base? Find the distance to fly.

From to WV39

Sunrise and sunset
Times for 19-Sep-2020
 Local
(UTC-4)
 Zulu
(UTC)
Morning civil twilight06:4710:47
Sunrise07:1411:14
Sunset19:2723:27
Evening civil twilight19:5423:54

Current date and time
Zulu (UTC)  20-Sep-2020 01:55:42
Local (UTC-4)  19-Sep-2020 21:55:42
 
METAR
K3I2 
15nm W 
200135Z AUTO 00000KT 10SM CLR 09/08 A3033 RMK AO2 T00870078
KUNI 
27nm NW 
200135Z AUTO 00000KT 10SM CLR 08/07 A3031 RMK AO2 T00800068
KPKB 
29nm NE 
200053Z 00000KT 10SM CLR 10/06 A3031 RMK AO2 SLP265 T01000061
TAF
KPKB 
29nm NE 
191720Z 1918/2018 06009KT P6SM SKC FM192300 00000KT P6SM SKC FM201300 VRB03KT P6SM SKC FM201700 07005KT P6SM SKC
KCRW 
35nm S 
191720Z 1918/2018 04007KT P6SM SKC FM200100 00000KT P6SM SKC FM200900 00000KT 6SM BR SKC FM201200 00000KT P6SM SKC FM201600 07004KT P6SM SKC
NOTAMs
Click for the latest NOTAMs
NOTAMs are issued by the DoD/FAA and will open in a separate window not controlled by AirNav.

 

 
 

Would you like to see your business listed on this page?

 If your business provides an interesting product or service to pilots, flight crews, aircraft, or users of the Ravenswood Seaplane Base, you should consider listing it here.  To start the listing process, click on the button below
 
Add a business
 

Other Pages about Ravenswood Seaplane Base

Update a link
 
Copyright © AirNav, LLC. All rights reserved. Privacy Policy  Contact